Terminal Aerodrome Forecast
Issued by NWS Omaha/Valley, NE

Home | Current Version | Previous Version | Text Only | Print | Product List | Glossary On
Versions: 1 2 3 4 5 6 7 8 9 10 11 12 13 14 15 16 17 18 19 20 21 22
000
FTUS43 KOAX 141133
TAFOFK
TAF
KOFK 141133Z 1412/1512 31006KT P6SM OVC040
     FM141700 32006KT P6SM OVC045
     FM141800 32007KT P6SM VCSH OVC035
     FM142100 33010KT P6SM OVC025 PROB30 1421/1503 -RASN OVC015
     FM150900 27005KT P6SM SCT040=

USA.gov is the U.S. government's official web portal to all federal, state and local government web resources and services.